sensor_id;sensor_type;location;lat;lon;timestamp;P1;durP1;ratioP1;P2;durP2;ratioP2
39082;SDS011;24834;44.444;26.098;2023-05-07T00:01:01;18.67;;;18.67;;
39082;SDS011;24834;44.444;26.098;2023-05-07T00:07:07;17.33;;;17.33;;
39082;SDS011;24834;44.444;26.098;2023-05-07T00:13:14;21.75;;;20.75;;
39082;SDS011;24834;44.444;26.098;2023-05-07T00:19:34;18.00;;;17.33;;
39082;SDS011;24834;44.444;26.098;2023-05-07T00:25:39;17.00;;;14.33;;
39082;SDS011;24834;44.444;26.098;2023-05-07T00:31:48;18.33;;;15.00;;
39082;SDS011;24834;44.444;26.098;2023-05-07T00:37:56;9.33;;;9.33;;
39082;SDS011;24834;44.444;26.098;2023-05-07T00:44:03;12.00;;;12.00;;
39082;SDS011;24834;44.444;26.098;2023-05-07T00:50:09;14.33;;;14.33;;
39082;SDS011;24834;44.444;26.098;2023-05-07T00:56:18;13.25;;;12.25;;
39082;SDS011;24834;44.444;26.098;2023-05-07T01:02:35;13.25;;;12.25;;
39082;SDS011;24834;44.444;26.098;2023-05-07T01:08:40;12.25;;;12.25;;
39082;SDS011;24834;44.444;26.098;2023-05-07T01:14:44;11.00;;;11.00;;
39082;SDS011;24834;44.444;26.098;2023-05-07T01:20:54;15.75;;;13.00;;
39082;SDS011;24834;44.444;26.098;2023-05-07T01:27:02;12.00;;;12.00;;
39082;SDS011;24834;44.444;26.098;2023-05-07T01:33:10;16.00;;;15.50;;
39082;SDS011;24834;44.444;26.098;2023-05-07T01:39:26;21.00;;;15.00;;
39082;SDS011;24834;44.444;26.098;2023-05-07T01:45:33;14.50;;;13.25;;
39082;SDS011;24834;44.444;26.098;2023-05-07T01:51:43;15.75;;;14.00;;
39082;SDS011;24834;44.444;26.098;2023-05-07T01:57:49;16.00;;;13.00;;
39082;SDS011;24834;44.444;26.098;2023-05-07T02:04:00;13.50;;;13.00;;
39082;SDS011;24834;44.444;26.098;2023-05-07T02:10:39;13.50;;;13.25;;
39082;SDS011;24834;44.444;26.098;2023-05-07T02:16:50;16.75;;;16.75;;
39082;SDS011;24834;44.444;26.098;2023-05-07T02:23:02;17.50;;;15.25;;
39082;SDS011;24834;44.444;26.098;2023-05-07T02:29:16;18.75;;;14.75;;
39082;SDS011;24834;44.444;26.098;2023-05-07T02:35:25;18.50;;;15.00;;
39082;SDS011;24834;44.444;26.098;2023-05-07T02:41:28;14.25;;;12.00;;
39082;SDS011;24834;44.444;26.098;2023-05-07T02:47:32;16.25;;;16.25;;
39082;SDS011;24834;44.444;26.098;2023-05-07T02:53:39;15.25;;;14.75;;
39082;SDS011;24834;44.444;26.098;2023-05-07T02:59:42;16.00;;;14.00;;
39082;SDS011;24834;44.444;26.098;2023-05-07T03:05:50;14.75;;;14.75;;
39082;SDS011;24834;44.444;26.098;2023-05-07T03:11:54;15.00;;;13.25;;
39082;SDS011;24834;44.444;26.098;2023-05-07T03:17:59;15.00;;;15.00;;
39082;SDS011;24834;44.444;26.098;2023-05-07T03:24:01;14.50;;;12.50;;
39082;SDS011;24834;44.444;26.098;2023-05-07T03:30:04;17.50;;;15.50;;
39082;SDS011;24834;44.444;26.098;2023-05-07T03:36:07;14.75;;;14.75;;
39082;SDS011;24834;44.444;26.098;2023-05-07T03:42:10;16.00;;;14.75;;
39082;SDS011;24834;44.444;26.098;2023-05-07T03:48:14;14.50;;;13.50;;
39082;SDS011;24834;44.444;26.098;2023-05-07T03:54:17;15.75;;;13.75;;
39082;SDS011;24834;44.444;26.098;2023-05-07T04:00:23;14.75;;;13.00;;
39082;SDS011;24834;44.444;26.098;2023-05-07T04:06:33;19.75;;;16.00;;
39082;SDS011;24834;44.444;26.098;2023-05-07T04:12:40;10.75;;;10.25;;
39082;SDS011;24834;44.444;26.098;2023-05-07T04:18:48;15.67;;;12.00;;
39082;SDS011;24834;44.444;26.098;2023-05-07T04:24:52;14.50;;;13.25;;
39082;SDS011;24834;44.444;26.098;2023-05-07T04:30:55;15.25;;;12.00;;
39082;SDS011;24834;44.444;26.098;2023-05-07T04:36:58;17.00;;;16.00;;
39082;SDS011;24834;44.444;26.098;2023-05-07T04:43:02;14.25;;;13.50;;
39082;SDS011;24834;44.444;26.098;2023-05-07T04:49:22;14.00;;;14.00;;
39082;SDS011;24834;44.444;26.098;2023-05-07T04:55:27;17.25;;;13.50;;
39082;SDS011;24834;44.444;26.098;2023-05-07T05:01:29;11.50;;;11.50;;
39082;SDS011;24834;44.444;26.098;2023-05-07T05:07:33;14.67;;;14.67;;
39082;SDS011;24834;44.444;26.098;2023-05-07T05:13:36;15.25;;;13.25;;
39082;SDS011;24834;44.444;26.098;2023-05-07T05:19:49;18.50;;;14.00;;
39082;SDS011;24834;44.444;26.098;2023-05-07T05:25:55;11.67;;;10.33;;
39082;SDS011;24834;44.444;26.098;2023-05-07T05:32:02;16.00;;;15.00;;
39082;SDS011;24834;44.444;26.098;2023-05-07T05:38:07;13.33;;;11.33;;
39082;SDS011;24834;44.444;26.098;2023-05-07T05:44:10;14.00;;;14.00;;
39082;SDS011;24834;44.444;26.098;2023-05-07T05:50:17;13.33;;;12.00;;
39082;SDS011;24834;44.444;26.098;2023-05-07T05:56:20;14.00;;;13.67;;
39082;SDS011;24834;44.444;26.098;2023-05-07T06:02:24;11.33;;;11.33;;
39082;SDS011;24834;44.444;26.098;2023-05-07T06:08:31;10.00;;;10.00;;
39082;SDS011;24834;44.444;26.098;2023-05-07T06:14:34;9.67;;;9.67;;
39082;SDS011;24834;44.444;26.098;2023-05-07T06:20:37;8.33;;;8.33;;
39082;SDS011;24834;44.444;26.098;2023-05-07T06:26:47;8.00;;;7.67;;
39082;SDS011;24834;44.444;26.098;2023-05-07T06:32:50;10.67;;;9.00;;
39082;SDS011;24834;44.444;26.098;2023-05-07T06:38:53;9.00;;;8.00;;
39082;SDS011;24834;44.444;26.098;2023-05-07T06:45:00;11.33;;;9.00;;
39082;SDS011;24834;44.444;26.098;2023-05-07T06:51:08;9.67;;;9.33;;
39082;SDS011;24834;44.444;26.098;2023-05-07T06:57:18;10.00;;;10.00;;
39082;SDS011;24834;44.444;26.098;2023-05-07T07:03:21;9.67;;;9.67;;
39082;SDS011;24834;44.444;26.098;2023-05-07T07:09:26;11.33;;;11.33;;
39082;SDS011;24834;44.444;26.098;2023-05-07T07:15:57;9.67;;;8.67;;
39082;SDS011;24834;44.444;26.098;2023-05-07T07:22:04;11.33;;;8.00;;
39082;SDS011;24834;44.444;26.098;2023-05-07T07:28:08;8.00;;;8.00;;
39082;SDS011;24834;44.444;26.098;2023-05-07T07:34:14;13.00;;;9.67;;
39082;SDS011;24834;44.444;26.098;2023-05-07T07:40:20;7.75;;;7.75;;
39082;SDS011;24834;44.444;26.098;2023-05-07T07:46:23;10.00;;;10.00;;
39082;SDS011;24834;44.444;26.098;2023-05-07T07:52:30;9.00;;;7.67;;
39082;SDS011;24834;44.444;26.098;2023-05-07T07:58:34;11.67;;;11.67;;
39082;SDS011;24834;44.444;26.098;2023-05-07T08:04:44;12.00;;;12.00;;
